sensor_id;sensor_type;location;lat;lon;timestamp;temperature;humidity
11762;DHT22;5938;47.098;15.474;2022-07-29T09:20:37;30.70;71.00
11762;DHT22;5938;47.098;15.474;2022-07-29T09:24:58;30.30;75.90
11762;DHT22;5938;47.098;15.474;2022-07-29T09:29:08;29.40;78.10
11762;DHT22;5938;47.098;15.474;2022-07-29T09:33:12;29.20;78.70
11762;DHT22;5938;47.098;15.474;2022-07-29T09:37:35;29.10;81.50
11762;DHT22;5938;47.098;15.474;2022-07-29T09:41:48;29.10;81.70
11762;DHT22;5938;47.098;15.474;2022-07-29T09:45:52;29.40;81.00
11762;DHT22;5938;47.098;15.474;2022-07-29T09:49:56;29.30;78.80
11762;DHT22;5938;47.098;15.474;2022-07-29T09:54:03;29.30;78.80
11762;DHT22;5938;47.098;15.474;2022-07-29T09:58:26;29.30;78.80
11762;DHT22;5938;47.098;15.474;2022-07-29T10:02:31;29.60;79.00
11762;DHT22;5938;47.098;15.474;2022-07-29T10:06:34;29.70;79.10
11762;DHT22;5938;47.098;15.474;2022-07-29T10:10:40;30.00;79.30
11762;DHT22;5938;47.098;15.474;2022-07-29T10:14:44;30.70;79.80
11762;DHT22;5938;47.098;15.474;2022-07-29T10:18:47;30.80;74.40
11762;DHT22;5938;47.098;15.474;2022-07-29T10:22:53;31.00;74.60
11762;DHT22;5938;47.098;15.474;2022-07-29T10:27:00;30.20;77.40
11762;DHT22;5938;47.098;15.474;2022-07-29T10:31:06;29.70;77.90
11762;DHT22;5938;47.098;15.474;2022-07-29T10:35:21;28.80;78.40
11762;DHT22;5938;47.098;15.474;2022-07-29T10:39:52;28.20;82.60
11762;DHT22;5938;47.098;15.474;2022-07-29T10:44:01;27.60;83.00
11762;DHT22;5938;47.098;15.474;2022-07-29T10:48:05;27.50;89.40
11762;DHT22;5938;47.098;15.474;2022-07-29T10:52:09;27.30;90.90
11762;DHT22;5938;47.098;15.474;2022-07-29T10:56:23;27.30;83.60
11762;DHT22;5938;47.098;15.474;2022-07-29T11:00:32;27.60;84.90
11762;DHT22;5938;47.098;15.474;2022-07-29T11:05:01;27.90;82.50
11762;DHT22;5938;47.098;15.474;2022-07-29T11:09:18;28.60;81.50
11762;DHT22;5938;47.098;15.474;2022-07-29T11:13:51;29.70;79.10
11762;DHT22;5938;47.098;15.474;2022-07-29T11:18:06;30.70;77.10
11762;DHT22;5938;47.098;15.474;2022-07-29T11:22:32;30.80;74.40
11762;DHT22;5938;47.098;15.474;2022-07-29T11:26:35;31.40;73.10
11762;DHT22;5938;47.098;15.474;2022-07-29T11:30:50;31.60;70.40
11762;DHT22;5938;47.098;15.474;2022-07-29T11:35:15;32.20;69.80
11762;DHT22;5938;47.098;15.474;2022-07-29T11:39:39;33.00;68.70
11762;DHT22;5938;47.098;15.474;2022-07-29T11:43:52;35.20;66.40
11762;DHT22;5938;47.098;15.474;2022-07-29T11:47:58;36.40;62.80
11762;DHT22;5938;47.098;15.474;2022-07-29T11:52:23;35.90;59.30
11762;DHT22;5938;47.098;15.474;2022-07-29T11:56:38;35.20;62.40
11762;DHT22;5938;47.098;15.474;2022-07-29T12:00:46;33.90;63.60
11762;DHT22;5938;47.098;15.474;2022-07-29T12:04:51;33.00;64.80
11762;DHT22;5938;47.098;15.474;2022-07-29T12:08:57;32.30;68.80
11762;DHT22;5938;47.098;15.474;2022-07-29T12:13:00;31.60;69.00
11762;DHT22;5938;47.098;15.474;2022-07-29T12:17:04;31.20;70.70
11762;DHT22;5938;47.098;15.474;2022-07-29T12:21:07;30.80;71.30
11762;DHT22;5938;47.098;15.474;2022-07-29T12:25:15;30.40;70.90
11762;DHT22;5938;47.098;15.474;2022-07-29T12:29:35;30.10;73.90
11762;DHT22;5938;47.098;15.474;2022-07-29T12:33:39;30.10;73.90
11762;DHT22;5938;47.098;15.474;2022-07-29T12:37:44;30.00;79.30
11762;DHT22;5938;47.098;15.474;2022-07-29T12:41:50;29.90;77.60
11762;DHT22;5938;47.098;15.474;2022-07-29T12:46:12;29.40;74.30
11762;DHT22;5938;47.098;15.474;2022-07-29T12:50:16;29.60;76.20
11762;DHT22;5938;47.098;15.474;2022-07-29T12:54:26;30.10;76.60
11762;DHT22;5938;47.098;15.474;2022-07-29T12:58:33;31.00;78.20
11762;DHT22;5938;47.098;15.474;2022-07-29T13:02:37;31.10;72.60
11762;DHT22;5938;47.098;15.474;2022-07-29T13:06:42;31.20;71.10
11762;DHT22;5938;47.098;15.474;2022-07-29T13:10:50;31.90;74.10
11762;DHT22;5938;47.098;15.474;2022-07-29T13:14:55;31.50;70.10
11762;DHT22;5938;47.098;15.474;2022-07-29T13:19:07;30.40;71.00
11762;DHT22;5938;47.098;15.474;2022-07-29T13:23:23;30.20;75.60
11762;DHT22;5938;47.098;15.474;2022-07-29T13:27:31;30.20;79.40
11762;DHT22;5938;47.098;15.474;2022-07-29T13:31:36;29.90;83.30
11762;DHT22;5938;47.098;15.474;2022-07-29T13:35:39;29.90;79.20
11762;DHT22;5938;47.098;15.474;2022-07-29T13:39:42;30.70;72.30
11762;DHT22;5938;47.098;15.474;2022-07-29T13:43:54;32.40;70.00
11762;DHT22;5938;47.098;15.474;2022-07-29T13:47:58;35.00;64.70
11762;DHT22;5938;47.098;15.474;2022-07-29T13:52:02;35.20;60.60
11762;DHT22;5938;47.098;15.474;2022-07-29T13:56:09;36.10;61.30
11762;DHT22;5938;47.098;15.474;2022-07-29T14:00:13;36.60;60.20
11762;DHT22;5938;47.098;15.474;2022-07-29T14:04:18;36.60;58.40
11762;DHT22;5938;47.098;15.474;2022-07-29T14:08:22;37.00;58.80
11762;DHT22;5938;47.098;15.474;2022-07-29T14:12:25;36.00;59.10
11762;DHT22;5938;47.098;15.474;2022-07-29T14:16:28;35.40;63.10
11762;DHT22;5938;47.098;15.474;2022-07-29T14:20:33;34.10;65.60
11762;DHT22;5938;47.098;15.474;2022-07-29T14:24:37;33.30;66.80
11762;DHT22;5938;47.098;15.474;2022-07-29T14:28:41;33.00;70.40
11762;DHT22;5938;47.098;15.474;2022-07-29T14:32:45;33.00;71.40
11762;DHT22;5938;47.098;15.474;2022-07-29T14:36:50;34.20;70.20
11762;DHT22;5938;47.098;15.474;2022-07-29T14:40:53;34.30;70.90
11762;DHT22;5938;47.098;15.474;2022-07-29T14:44:57;33.60;70.50
11762;DHT22;5938;47.098;15.474;2022-07-29T14:49:00;32.60;71.50
11762;DHT22;5938;47.098;15.474;2022-07-29T14:53:05;32.10;67.30
11762;DHT22;5938;47.098;15.474;2022-07-29T14:57:09;31.40;71.90
11762;DHT22;5938;47.098;15.474;2022-07-29T15:01:12;31.00;74.60
11762;DHT22;5938;47.098;15.474;2022-07-29T15:05:16;30.90;74.50
11762;DHT22;5938;47.098;15.474;2022-07-29T15:09:20;30.70;73.30
11762;DHT22;5938;47.098;15.474;2022-07-29T15:13:24;30.50;75.50
11762;DHT22;5938;47.098;15.474;2022-07-29T15:17:27;31.10;75.20
11762;DHT22;5938;47.098;15.474;2022-07-29T15:21:31;32.30;69.90
11762;DHT22;5938;47.098;15.474;2022-07-29T15:25:35;32.30;69.70
11762;DHT22;5938;47.098;15.474;2022-07-29T15:29:39;31.40;69.30
11762;DHT22;5938;47.098;15.474;2022-07-29T15:33:43;31.00;69.00
11762;DHT22;5938;47.098;15.474;2022-07-29T15:37:46;30.60;74.30
11762;DHT22;5938;47.098;15.474;2022-07-29T15:41:51;30.60;73.60
11762;DHT22;5938;47.098;15.474;2022-07-29T15:45:55;31.20;77.10
11762;DHT22;5938;47.098;15.474;2022-07-29T15:50:15;31.80;72.20
11762;DHT22;5938;47.098;15.474;2022-07-29T15:54:19;34.00;69.60
11762;DHT22;5938;47.098;15.474;2022-07-29T15:58:24;35.30;64.40
11762;DHT22;5938;47.098;15.474;2022-07-29T16:02:27;34.10;64.70
11762;DHT22;5938;47.098;15.474;2022-07-29T16:06:30;33.70;64.40
11762;DHT22;5938;47.098;15.474;2022-07-29T16:10:34;33.90;65.50
11762;DHT22;5938;47.098;15.474;2022-07-29T16:14:38;33.20;67.10
11762;DHT22;5938;47.098;15.474;2022-07-29T16:18:42;32.50;67.40
11762;DHT22;5938;47.098;15.474;2022-07-29T16:22:45;31.80;71.50
11762;DHT22;5938;47.098;15.474;2022-07-29T16:26:48;30.50;74.20
11762;DHT22;5938;47.098;15.474;2022-07-29T16:30:54;30.20;77.80
11762;DHT22;5938;47.098;15.474;2022-07-29T16:34:58;30.20;77.60
11762;DHT22;5938;47.098;15.474;2022-07-29T16:39:03;29.60;79.00
11762;DHT22;5938;47.098;15.474;2022-07-29T16:43:07;28.90;79.40
11762;DHT22;5938;47.098;15.474;2022-07-29T16:47:11;28.30;81.20
11762;DHT22;5938;47.098;15.474;2022-07-29T16:51:14;27.90;84.00
11762;DHT22;5938;47.098;15.474;2022-07-29T16:55:18;27.30;84.20
11762;DHT22;5938;47.098;15.474;2022-07-29T16:59:21;27.00;85.20
11762;DHT22;5938;47.098;15.474;2022-07-29T17:03:26;26.80;87.60
11762;DHT22;5938;47.098;15.474;2022-07-29T17:07:29;26.60;87.50
11762;DHT22;5938;47.098;15.474;2022-07-29T17:11:33;26.40;88.80
11762;DHT22;5938;47.098;15.474;2022-07-29T17:15:54;26.10;91.70
11762;DHT22;5938;47.098;15.474;2022-07-29T17:20:03;25.80;93.20
11762;DHT22;5938;47.098;15.474;2022-07-29T17:24:07;25.50;95.40
11762;DHT22;5938;47.098;15.474;2022-07-29T17:28:10;25.20;96.10
11762;DHT22;5938;47.098;15.474;2022-07-29T17:32:13;25.00;97.40
11762;DHT22;5938;47.098;15.474;2022-07-29T17:36:18;24.80;97.40
11762;DHT22;5938;47.098;15.474;2022-07-29T17:40:27;24.60;97.50
11762;DHT22;5938;47.098;15.474;2022-07-29T17:44:31;24.50;98.00
11762;DHT22;5938;47.098;15.474;2022-07-29T17:48:37;24.30;99.60
11762;DHT22;5938;47.098;15.474;2022-07-29T17:52:42;24.20;99.90
11762;DHT22;5938;47.098;15.474;2022-07-29T17:56:46;24.10;99.90
11762;DHT22;5938;47.098;15.474;2022-07-29T18:01:02;24.00;99.90
11762;DHT22;5938;47.098;15.474;2022-07-29T18:05:12;23.80;99.90
11762;DHT22;5938;47.098;15.474;2022-07-29T18:09:18;23.60;99.90
11762;DHT22;5938;47.098;15.474;2022-07-29T18:13:23;23.40;99.90
11762;DHT22;5938;47.098;15.474;2022-07-29T18:17:28;23.30;99.90
11762;DHT22;5938;47.098;15.474;2022-07-29T18:21:54;23.10;99.90
11762;DHT22;5938;47.098;15.474;2022-07-29T18:26:22;23.00;99.90
11762;DHT22;5938;47.098;15.474;2022-07-29T18:30:33;22.70;99.90
11762;DHT22;5938;47.098;15.474;2022-07-29T18:34:39;22.50;99.90
11762;DHT22;5938;47.098;15.474;2022-07-29T18:38:42;22.40;99.90
11762;DHT22;5938;47.098;15.474;2022-07-29T18:42:47;22.30;99.90
11762;DHT22;5938;47.098;15.474;2022-07-29T18:46:50;22.10;99.90
11762;DHT22;5938;47.098;15.474;2022-07-29T18:50:55;22.00;99.90
11762;DHT22;5938;47.098;15.474;2022-07-29T18:55:00;21.90;99.90
11762;DHT22;5938;47.098;15.474;2022-07-29T18:59:08;21.90;99.90
11762;DHT22;5938;47.098;15.474;2022-07-29T19:03:13;21.70;99.90
11762;DHT22;5938;47.098;15.474;2022-07-29T19:07:16;21.70;99.90
11762;DHT22;5938;47.098;15.474;2022-07-29T19:11:20;21.60;99.90
11762;DHT22;5938;47.098;15.474;2022-07-29T19:15:25;21.60;99.90
11762;DHT22;5938;47.098;15.474;2022-07-29T19:19:29;21.50;99.90
11762;DHT22;5938;47.098;15.474;2022-07-29T19:23:33;21.40;99.90
11762;DHT22;5938;47.098;15.474;2022-07-29T19:27:56;21.40;99.90
11762;DHT22;5938;47.098;15.474;2022-07-29T19:32:01;21.40;99.90
11762;DHT22;5938;47.098;15.474;2022-07-29T19:36:05;21.40;99.90
11762;DHT22;5938;47.098;15.474;2022-07-29T19:40:10;21.40;99.90
11762;DHT22;5938;47.098;15.474;2022-07-29T19:44:14;21.30;99.90
11762;DHT22;5938;47.098;15.474;2022-07-29T19:48:18;21.30;99.90
11762;DHT22;5938;47.098;15.474;2022-07-29T19:52:22;21.20;99.90
11762;DHT22;5938;47.098;15.474;2022-07-29T19:56:25;21.20;99.90
11762;DHT22;5938;47.098;15.474;2022-07-29T20:00:31;21.30;99.90
11762;DHT22;5938;47.098;15.474;2022-07-29T20:04:36;21.30;99.90
11762;DHT22;5938;47.098;15.474;2022-07-29T20:08:39;21.30;99.90
11762;DHT22;5938;47.098;15.474;2022-07-29T20:12:43;21.30;99.90
11762;DHT22;5938;47.098;15.474;2022-07-29T20:16:50;21.40;99.90
11762;DHT22;5938;47.098;15.474;2022-07-29T20:20:55;21.40;99.90
11762;DHT22;5938;47.098;15.474;2022-07-29T20:25:01;21.70;99.90
11762;DHT22;5938;47.098;15.474;2022-07-29T20:29:14;21.80;99.90
11762;DHT22;5938;47.098;15.474;2022-07-29T20:33:19;21.40;99.90
11762;DHT22;5938;47.098;15.474;2022-07-29T20:37:24;20.80;99.90
11762;DHT22;5938;47.098;15.474;2022-07-29T20:41:27;20.50;99.90
11762;DHT22;5938;47.098;15.474;2022-07-29T20:45:31;20.30;99.90
11762;DHT22;5938;47.098;15.474;2022-07-29T20:49:35;20.10;99.90
11762;DHT22;5938;47.098;15.474;2022-07-29T20:53:40;20.10;99.90
11762;DHT22;5938;47.098;15.474;2022-07-29T20:57:43;20.00;99.90
11762;DHT22;5938;47.098;15.474;2022-07-29T21:01:46;19.80;99.90
11762;DHT22;5938;47.098;15.474;2022-07-29T21:05:50;19.80;99.90
11762;DHT22;5938;47.098;15.474;2022-07-29T21:09:54;19.80;99.90
11762;DHT22;5938;47.098;15.474;2022-07-29T21:13:58;19.80;99.90
11762;DHT22;5938;47.098;15.474;2022-07-29T21:18:02;19.80;99.90
11762;DHT22;5938;47.098;15.474;2022-07-29T21:22:10;19.70;99.90
11762;DHT22;5938;47.098;15.474;2022-07-29T21:26:14;19.50;99.90
11762;DHT22;5938;47.098;15.474;2022-07-29T21:30:18;19.50;99.90
11762;DHT22;5938;47.098;15.474;2022-07-29T21:34:21;19.40;99.90
11762;DHT22;5938;47.098;15.474;2022-07-29T21:38:25;19.30;99.90
11762;DHT22;5938;47.098;15.474;2022-07-29T21:42:30;19.30;99.90
11762;DHT22;5938;47.098;15.474;2022-07-29T21:46:33;19.10;99.90
11762;DHT22;5938;47.098;15.474;2022-07-29T21:50:37;19.00;99.90
11762;DHT22;5938;47.098;15.474;2022-07-29T21:54:40;19.00;99.90
11762;DHT22;5938;47.098;15.474;2022-07-29T21:58:46;18.90;99.90
11762;DHT22;5938;47.098;15.474;2022-07-29T22:02:49;18.80;99.90
11762;DHT22;5938;47.098;15.474;2022-07-29T22:06:52;18.60;99.90
11762;DHT22;5938;47.098;15.474;2022-07-29T22:10:55;18.40;99.90
11762;DHT22;5938;47.098;15.474;2022-07-29T22:15:00;18.40;99.90
11762;DHT22;5938;47.098;15.474;2022-07-29T22:19:03;18.40;99.90
11762;DHT22;5938;47.098;15.474;2022-07-29T22:23:07;18.20;99.90
11762;DHT22;5938;47.098;15.474;2022-07-29T22:27:10;18.10;99.90
11762;DHT22;5938;47.098;15.474;2022-07-29T22:31:16;18.00;99.90
11762;DHT22;5938;47.098;15.474;2022-07-29T22:35:19;17.90;99.90
11762;DHT22;5938;47.098;15.474;2022-07-29T22:39:22;17.80;99.90
11762;DHT22;5938;47.098;15.474;2022-07-29T22:43:25;17.70;99.90
11762;DHT22;5938;47.098;15.474;2022-07-29T22:47:30;17.70;99.90
11762;DHT22;5938;47.098;15.474;2022-07-29T22:51:47;17.70;99.90
11762;DHT22;5938;47.098;15.474;2022-07-29T22:55:51;17.70;99.90
11762;DHT22;5938;47.098;15.474;2022-07-29T22:59:54;17.60;99.90
11762;DHT22;5938;47.098;15.474;2022-07-29T23:03:59;17.50;99.90
11762;DHT22;5938;47.098;15.474;2022-07-29T23:08:02;17.50;99.90
11762;DHT22;5938;47.098;15.474;2022-07-29T23:12:06;17.50;99.90
11762;DHT22;5938;47.098;15.474;2022-07-29T23:16:10;17.40;99.90
11762;DHT22;5938;47.098;15.474;2022-07-29T23:20:15;17.30;99.90
11762;DHT22;5938;47.098;15.474;2022-07-29T23:24:18;17.20;99.90
11762;DHT22;5938;47.098;15.474;2022-07-29T23:28:21;17.20;99.90
11762;DHT22;5938;47.098;15.474;2022-07-29T23:32:24;17.20;99.90
11762;DHT22;5938;47.098;15.474;2022-07-29T23:36:29;17.20;99.90
11762;DHT22;5938;47.098;15.474;2022-07-29T23:40:33;17.30;99.90
11762;DHT22;5938;47.098;15.474;2022-07-29T23:44:36;17.20;99.90
11762;DHT22;5938;47.098;15.474;2022-07-29T23:48:39;17.10;99.90
11762;DHT22;5938;47.098;15.474;2022-07-29T23:52:44;17.10;99.90
11762;DHT22;5938;47.098;15.474;2022-07-29T23:56:48;17.10;99.90
